createdAt,value
2017-02-26T00:00:19.202Z,1008.35
2017-02-26T00:01:29.162Z,1008.38
2017-02-26T00:02:39.646Z,1008.4
2017-02-26T00:03:50.400Z,1008.37
2017-02-26T00:05:00.654Z,1008.39
2017-02-26T00:06:11.024Z,1008.37
2017-02-26T00:07:21.756Z,1008.36
2017-02-26T00:08:32.500Z,1008.36
2017-02-26T00:09:42.468Z,1008.35
2017-02-26T00:10:53.511Z,1008.36
2017-02-26T00:12:03.852Z,1008.34
2017-02-26T00:13:14.170Z,1008.29
2017-02-26T00:14:24.125Z,1008.27
2017-02-26T00:15:34.051Z,1008.25
2017-02-26T00:16:44.254Z,1008.29
2017-02-26T00:17:54.586Z,1008.25
2017-02-26T00:19:04.963Z,1008.18
2017-02-26T00:20:15.699Z,1008.17
2017-02-26T00:21:25.623Z,1008.22
2017-02-26T00:22:36.224Z,1008.12
2017-02-26T00:23:46.974Z,1008.11
2017-02-26T00:24:57.719Z,1008.17
2017-02-26T00:26:07.668Z,1008.2
2017-02-26T00:27:17.607Z,1008.19
2017-02-26T00:28:28.180Z,1008.17
2017-02-26T00:29:38.554Z,1008.15
2017-02-26T00:30:48.499Z,1008.17
2017-02-26T00:31:58.457Z,1008.18
2017-02-26T00:33:08.412Z,1008.17
2017-02-26T00:34:18.988Z,1008.14
2017-02-26T00:35:29.328Z,1008.15
2017-02-26T00:36:39.271Z,1008.06
2017-02-26T00:37:49.616Z,1008.08
2017-02-26T00:39:00.355Z,1008.05
2017-02-26T00:40:10.535Z,1008.03
2017-02-26T00:41:20.465Z,1008.03
2017-02-26T00:42:31.252Z,1008.02
2017-02-26T00:43:40.813Z,1008.02
2017-02-26T00:44:51.146Z,1008.01
2017-02-26T00:46:01.335Z,1008.02
2017-02-26T00:47:11.687Z,1007.97
2017-02-26T00:48:22.019Z,1007.97
2017-02-26T00:49:31.591Z,1007.99
2017-02-26T00:50:41.921Z,1007.97
2017-02-26T00:51:52.108Z,1007.94
2017-02-26T00:53:02.461Z,1007.94
2017-02-26T00:54:12.797Z,1007.86
2017-02-26T00:55:22.339Z,1007.92
2017-02-26T00:56:32.701Z,1007.93
2017-02-26T00:57:42.885Z,1007.98
2017-02-26T00:58:53.204Z,1007.98
2017-02-26T01:00:03.936Z,1007.98
2017-02-26T01:01:13.891Z,1007.92
2017-02-26T01:02:23.856Z,1007.95
2017-02-26T01:03:34.061Z,1007.95
2017-02-26T01:04:43.597Z,1007.95
2017-02-26T01:05:53.936Z,1007.95
2017-02-26T01:07:04.896Z,1007.9
2017-02-26T01:08:15.616Z,1007.88
2017-02-26T01:09:26.230Z,1007.9
2017-02-26T01:10:36.984Z,1007.89
2017-02-26T01:11:47.334Z,1007.92
2017-02-26T01:12:58.055Z,1007.84
2017-02-26T01:14:07.996Z,1007.82
2017-02-26T01:15:18.237Z,1007.78
2017-02-26T01:16:28.563Z,1007.8
2017-02-26T01:17:39.288Z,1007.74
2017-02-26T01:18:49.609Z,1007.72
2017-02-26T01:19:59.545Z,1007.67
2017-02-26T01:21:09.733Z,1007.7
2017-02-26T01:22:20.476Z,1007.75
2017-02-26T01:23:30.803Z,1007.7
2017-02-26T01:24:40.776Z,1007.64
2017-02-26T01:25:50.313Z,1007.7
2017-02-26T01:27:00.514Z,1007.7
2017-02-26T01:28:09.823Z,1007.68
2017-02-26T01:29:19.752Z,1007.68
2017-02-26T01:30:29.295Z,1007.67
2017-02-26T01:31:39.233Z,1007.66
2017-02-26T01:32:49.410Z,1007.63
2017-02-26T01:33:59.352Z,1007.64
2017-02-26T01:35:09.291Z,1007.66
2017-02-26T01:36:20.017Z,1007.67
2017-02-26T01:37:29.952Z,1007.64
2017-02-26T01:38:40.213Z,1007.62
2017-02-26T01:39:50.559Z,1007.66
2017-02-26T01:41:01.311Z,1007.66
2017-02-26T01:42:11.244Z,1007.63
2017-02-26T01:43:21.212Z,1007.66
2017-02-26T01:44:32.208Z,1007.64
2017-02-26T01:45:42.159Z,1007.61
2017-02-26T01:46:52.498Z,1007.57
2017-02-26T01:48:03.231Z,1007.58
2017-02-26T01:49:13.568Z,1007.58
2017-02-26T01:50:24.185Z,1007.59
2017-02-26T01:51:34.501Z,1007.58
2017-02-26T01:52:44.469Z,1007.52
2017-02-26T01:53:54.811Z,1007.5
2017-02-26T01:55:05.138Z,1007.42
2017-02-26T01:56:16.117Z,1007.52
2017-02-26T01:57:26.449Z,1007.39
2017-02-26T01:58:36.798Z,1007.36
2017-02-26T01:59:47.138Z,1007.34
2017-02-26T02:00:57.874Z,1007.36
2017-02-26T02:02:07.675Z,1007.37
2017-02-26T02:03:17.651Z,1007.34
2017-02-26T02:04:27.198Z,1007.39
2017-02-26T02:05:37.928Z,1007.28
2017-02-26T02:06:48.283Z,1007.26
2017-02-26T02:07:58.917Z,1007.36
2017-02-26T02:09:08.849Z,1007.4
2017-02-26T02:10:19.177Z,1007.41
2017-02-26T02:11:29.527Z,1007.41
2017-02-26T02:12:39.471Z,1007.35
2017-02-26T02:13:49.665Z,1007.37
2017-02-26T02:15:00.007Z,1007.34
2017-02-26T02:16:10.775Z,1007.31
2017-02-26T02:17:20.722Z,1007.26
2017-02-26T02:18:30.672Z,1007.3
2017-02-26T02:19:41.259Z,1007.27
2017-02-26T02:20:51.575Z,1007.25
2017-02-26T02:22:00.718Z,1007.3
2017-02-26T02:23:11.444Z,1007.26
2017-02-26T02:24:21.780Z,1007.17
2017-02-26T02:25:32.036Z,1007.21
2017-02-26T02:26:42.772Z,1007.21
2017-02-26T02:27:53.109Z,1007.19
2017-02-26T02:29:03.445Z,1007.15
2017-02-26T02:30:13.773Z,1007.08
2017-02-26T02:31:24.756Z,1007.05
2017-02-26T02:32:35.092Z,1006.99
2017-02-26T02:33:45.411Z,1006.93
2017-02-26T02:34:54.945Z,1006.93
2017-02-26T02:36:04.525Z,1006.96
2017-02-26T02:37:15.117Z,1006.99
2017-02-26T02:38:25.444Z,1006.99
2017-02-26T02:39:35.770Z,1006.96
2017-02-26T02:40:45.712Z,1006.97
2017-02-26T02:41:56.460Z,1006.97
2017-02-26T02:43:07.062Z,1007.02
2017-02-26T02:44:16.245Z,1006.99
2017-02-26T02:45:26.179Z,1006.98
2017-02-26T02:46:36.501Z,1006.94
2017-02-26T02:47:47.238Z,1006.93
2017-02-26T02:48:58.288Z,1006.96
2017-02-26T02:50:07.833Z,1006.99
2017-02-26T02:51:17.804Z,1007.01
2017-02-26T02:52:27.767Z,1006.96
2017-02-26T02:53:37.683Z,1007.04
2017-02-26T02:54:47.929Z,1006.99
2017-02-26T02:55:58.278Z,1006.99
2017-02-26T02:57:08.208Z,1006.96
2017-02-26T02:58:18.178Z,1006.93
2017-02-26T02:59:27.731Z,1006.83
2017-02-26T03:00:38.358Z,1006.84
2017-02-26T03:01:48.704Z,1006.9
2017-02-26T03:02:58.650Z,1006.86
2017-02-26T03:04:09.379Z,1006.85
2017-02-26T03:05:20.116Z,1006.81
2017-02-26T03:06:30.739Z,1006.85
2017-02-26T03:07:40.689Z,1006.8
2017-02-26T03:08:50.655Z,1006.79
2017-02-26T03:10:01.008Z,1006.8
2017-02-26T03:11:10.972Z,1006.81
2017-02-26T03:12:22.008Z,1006.82
2017-02-26T03:13:32.329Z,1006.75
2017-02-26T03:14:42.655Z,1006.73
2017-02-26T03:15:53.395Z,1006.75
2017-02-26T03:17:03.736Z,1006.76
2017-02-26T03:18:13.923Z,1006.78
2017-02-26T03:19:24.267Z,1006.73
2017-02-26T03:20:35.005Z,1006.72
2017-02-26T03:21:45.722Z,1006.75
2017-02-26T03:22:56.464Z,1006.72
2017-02-26T03:24:07.052Z,1006.7
2017-02-26T03:25:16.992Z,1006.74
2017-02-26T03:26:26.940Z,1006.77
2017-02-26T03:27:36.102Z,1006.66
2017-02-26T03:28:46.426Z,1006.7
2017-02-26T03:29:56.607Z,1006.75
2017-02-26T03:31:06.534Z,1006.73
2017-02-26T03:32:16.870Z,1006.73
2017-02-26T03:33:26.832Z,1006.68
2017-02-26T03:34:37.185Z,1006.66
2017-02-26T03:35:47.375Z,1006.66
2017-02-26T03:36:58.093Z,1006.7
2017-02-26T03:38:08.041Z,1006.68
2017-02-26T03:39:18.358Z,1006.7
2017-02-26T03:40:28.703Z,1006.63
2017-02-26T03:41:39.737Z,1006.57
2017-02-26T03:42:49.314Z,1006.58
2017-02-26T03:43:59.643Z,1006.56
2017-02-26T03:45:09.980Z,1006.5
2017-02-26T03:46:19.925Z,1006.48
2017-02-26T03:47:30.905Z,1006.44
2017-02-26T03:48:40.460Z,1006.48
2017-02-26T03:49:50.402Z,1006.49
2017-02-26T03:51:01.136Z,1006.49
2017-02-26T03:52:10.688Z,1006.48
2017-02-26T03:53:21.286Z,1006.45
2017-02-26T03:54:31.231Z,1006.39
2017-02-26T03:55:41.183Z,1006.42
2017-02-26T03:56:51.170Z,1006.42
2017-02-26T03:58:01.896Z,1006.4
2017-02-26T03:59:12.879Z,1006.42
2017-02-26T04:00:23.199Z,1006.35
2017-02-26T04:01:33.170Z,1006.33
2017-02-26T04:02:43.526Z,1006.26
2017-02-26T04:03:54.251Z,1006.2
2017-02-26T04:05:04.036Z,1006.24
2017-02-26T04:06:14.770Z,1006.19
2017-02-26T04:07:24.722Z,1006.2
2017-02-26T04:08:34.271Z,1006.12
2017-02-26T04:09:44.617Z,1006.14
2017-02-26T04:10:55.615Z,1006.11
2017-02-26T04:12:06.007Z,1006.12
2017-02-26T04:13:16.362Z,1006.14
2017-02-26T04:14:26.715Z,1006.16
2017-02-26T04:15:37.032Z,1006.2
2017-02-26T04:16:47.215Z,1006.13
2017-02-26T04:17:57.144Z,1006.16
2017-02-26T04:19:06.690Z,1006.15
2017-02-26T04:20:16.645Z,1006.18
2017-02-26T04:21:26.966Z,1006.15
2017-02-26T04:22:37.568Z,1006.21
2017-02-26T04:23:48.298Z,1006.17
2017-02-26T04:24:58.229Z,1006.18
2017-02-26T04:26:08.599Z,1006.17
2017-02-26T04:27:18.953Z,1006.16
2017-02-26T04:28:29.189Z,1006.13
2017-02-26T04:29:39.929Z,1006.11
2017-02-26T04:30:49.886Z,1006.18
2017-02-26T04:31:59.420Z,1006.16
2017-02-26T04:33:10.141Z,1006.16
2017-02-26T04:34:19.929Z,1006.18
2017-02-26T04:35:30.284Z,1006.17
2017-02-26T04:36:40.637Z,1006.06
2017-02-26T04:37:49.788Z,1006.11
2017-02-26T04:39:00.130Z,1006.19
2017-02-26T04:40:10.365Z,1006.15
2017-02-26T04:41:20.693Z,1006.22
2017-02-26T04:42:31.030Z,1006.25
2017-02-26T04:43:40.965Z,1006.24
2017-02-26T04:44:51.686Z,1006.27
2017-02-26T04:46:01.532Z,1006.3
2017-02-26T04:47:11.857Z,1006.22
2017-02-26T04:48:22.217Z,1006.24
2017-02-26T04:49:32.957Z,1006.22
2017-02-26T04:50:43.328Z,1006.2
2017-02-26T04:51:53.922Z,1006.21
2017-02-26T04:53:04.274Z,1006.15
2017-02-26T04:54:14.604Z,1006.18
2017-02-26T04:55:25.344Z,1006.17
2017-02-26T04:56:35.718Z,1006.17
2017-02-26T04:57:45.916Z,1006.18
2017-02-26T04:58:55.877Z,1006.15
2017-02-26T05:00:06.598Z,1006.18
2017-02-26T05:01:17.308Z,1006.15
2017-02-26T05:02:27.248Z,1006.11
2017-02-26T05:03:37.877Z,1006.17
2017-02-26T05:04:48.230Z,1006.13
2017-02-26T05:05:57.820Z,1006.09
2017-02-26T05:07:08.179Z,1006.09
2017-02-26T05:08:18.511Z,1006.11
2017-02-26T05:09:28.738Z,1006.1
2017-02-26T05:10:39.085Z,1006.15
2017-02-26T05:11:49.420Z,1006.17
2017-02-26T05:12:59.373Z,1006.18
2017-02-26T05:14:09.750Z,1006.19
2017-02-26T05:15:20.338Z,1006.13
2017-02-26T05:16:29.884Z,1006.16
2017-02-26T05:17:40.642Z,1006.21
2017-02-26T05:18:50.985Z,1006.18
2017-02-26T05:20:00.525Z,1006.18
2017-02-26T05:21:10.764Z,1006.17
2017-02-26T05:22:20.313Z,1006.21
2017-02-26T05:23:30.255Z,1006.19
2017-02-26T05:24:40.991Z,1006.25
2017-02-26T05:25:50.927Z,1006.23
2017-02-26T05:27:00.405Z,1006.17
2017-02-26T05:28:10.339Z,1006.17
2017-02-26T05:29:20.667Z,1006.17
2017-02-26T05:30:30.601Z,1006.17
2017-02-26T05:31:41.328Z,1006.21
2017-02-26T05:32:51.923Z,1006.1
2017-02-26T05:34:01.849Z,1006.1
2017-02-26T05:35:12.191Z,1006.09
2017-02-26T05:36:22.927Z,1006.14
2017-02-26T05:37:33.653Z,1006.16
2017-02-26T05:38:44.689Z,1006.21
2017-02-26T05:39:54.639Z,1006.12
2017-02-26T05:41:04.982Z,1006.12
2017-02-26T05:42:15.701Z,1006.09
2017-02-26T05:43:25.635Z,1006.08
2017-02-26T05:44:36.644Z,1006.07
2017-02-26T05:45:46.991Z,1006.1
2017-02-26T05:46:56.955Z,1006.07
2017-02-26T05:48:06.890Z,1006.03
2017-02-26T05:49:16.829Z,1006.04
2017-02-26T05:50:27.465Z,1006.05
2017-02-26T05:51:36.632Z,1006.01
2017-02-26T05:52:46.585Z,1006.08
2017-02-26T05:53:56.530Z,1006.11
2017-02-26T05:55:06.479Z,1006.09
2017-02-26T05:56:17.067Z,1006.07
2017-02-26T05:57:27.030Z,1006.06
2017-02-26T05:58:37.369Z,1006.03
2017-02-26T05:59:47.426Z,1006.04
2017-02-26T06:00:57.768Z,1006.02
2017-02-26T06:02:08.796Z,1006.07
2017-02-26T06:03:18.732Z,1006.01
2017-02-26T06:04:28.661Z,1006.03
2017-02-26T06:05:38.615Z,1005.97
2017-02-26T06:06:48.544Z,1006.01
2017-02-26T06:07:58.723Z,1006.06
2017-02-26T06:09:09.072Z,1006.03
2017-02-26T06:10:19.405Z,1005.96
2017-02-26T06:11:30.137Z,1005.95
2017-02-26T06:12:40.075Z,1005.95
2017-02-26T06:13:50.694Z,1005.96
2017-02-26T06:15:01.033Z,1005.99
2017-02-26T06:16:11.369Z,1005.97
2017-02-26T06:17:21.750Z,1005.95
2017-02-26T06:18:32.476Z,1005.95
2017-02-26T06:19:42.312Z,1005.95
2017-02-26T06:20:52.242Z,1005.92
2017-02-26T06:22:03.177Z,1005.93
2017-02-26T06:23:13.129Z,1005.91
2017-02-26T06:24:23.871Z,1005.91
2017-02-26T06:25:34.851Z,1005.97
2017-02-26T06:26:45.183Z,1005.92
2017-02-26T06:27:55.133Z,1005.9
2017-02-26T06:29:05.475Z,1005.91
2017-02-26T06:30:15.823Z,1005.94
2017-02-26T06:31:26.047Z,1005.95
2017-02-26T06:32:36.377Z,1005.94
2017-02-26T06:33:46.351Z,1005.91
2017-02-26T06:34:56.687Z,1005.92
2017-02-26T06:36:06.261Z,1005.92
2017-02-26T06:37:17.286Z,1005.97
2017-02-26T06:38:28.018Z,1005.91
2017-02-26T06:39:38.740Z,1005.94
2017-02-26T06:40:49.098Z,1005.92
2017-02-26T06:41:59.833Z,1005.88
2017-02-26T06:43:10.453Z,1005.9
2017-02-26T06:44:20.795Z,1005.91
2017-02-26T06:45:31.123Z,1005.88
2017-02-26T06:46:41.436Z,1005.88
2017-02-26T06:47:51.800Z,1005.86
2017-02-26T06:49:02.787Z,1005.9
2017-02-26T06:50:12.753Z,1005.89
2017-02-26T06:51:22.715Z,1005.95
2017-02-26T06:52:32.658Z,1005.93
2017-02-26T06:53:42.991Z,1005.98
2017-02-26T06:54:53.457Z,1005.89
2017-02-26T06:56:03.381Z,1005.91
2017-02-26T06:57:13.334Z,1005.95
2017-02-26T06:58:23.277Z,1005.96
2017-02-26T06:59:34.043Z,1005.94
2017-02-26T07:00:44.613Z,1005.93
2017-02-26T07:01:55.326Z,1005.94
2017-02-26T07:03:05.675Z,1005.92
2017-02-26T07:04:16.009Z,1005.99
2017-02-26T07:05:26.744Z,1005.95
2017-02-26T07:06:37.324Z,1005.97
2017-02-26T07:07:47.301Z,1005.97
2017-02-26T07:08:58.046Z,1005.95
2017-02-26T07:10:08.368Z,1005.93
2017-02-26T07:11:18.697Z,1006
2017-02-26T07:12:29.715Z,1005.97
2017-02-26T07:13:39.695Z,1005.95
2017-02-26T07:14:49.253Z,1006
2017-02-26T07:15:59.970Z,1005.96
2017-02-26T07:17:10.728Z,1006
2017-02-26T07:18:20.932Z,1005.97
2017-02-26T07:19:31.268Z,1005.98
2017-02-26T07:20:41.199Z,1006.03
2017-02-26T07:21:51.903Z,1006.04
2017-02-26T07:23:02.236Z,1006
2017-02-26T07:24:13.244Z,1005.98
2017-02-26T07:25:23.595Z,1005.99
2017-02-26T07:26:33.890Z,1006.01
2017-02-26T07:27:44.255Z,1006.01
2017-02-26T07:28:54.971Z,1006.06
2017-02-26T07:30:05.211Z,1006.06
2017-02-26T07:31:14.370Z,1006.03
2017-02-26T07:32:24.702Z,1006.08
2017-02-26T07:33:35.019Z,1006.11
2017-02-26T07:34:45.372Z,1006.08
2017-02-26T07:35:55.551Z,1006.04
2017-02-26T07:37:05.512Z,1006.08
2017-02-26T07:38:15.871Z,1006.08
2017-02-26T07:39:26.760Z,1006.06
2017-02-26T07:40:37.110Z,1006.11
2017-02-26T07:41:47.702Z,1006.08
2017-02-26T07:42:57.665Z,1006.07
2017-02-26T07:44:08.413Z,1006.1
2017-02-26T07:45:17.944Z,1006.08
2017-02-26T07:46:28.665Z,1006.12
2017-02-26T07:47:39.723Z,1006.15
2017-02-26T07:48:50.063Z,1006.18
2017-02-26T07:49:59.994Z,1006.23
2017-02-26T07:51:09.958Z,1006.15
2017-02-26T07:52:20.309Z,1006.15
2017-02-26T07:53:30.876Z,1006.12
2017-02-26T07:54:41.233Z,1006.12
2017-02-26T07:55:51.593Z,1006.06
2017-02-26T07:57:01.912Z,1006.09
2017-02-26T07:58:12.237Z,1006.05
2017-02-26T07:59:22.481Z,1006.05
2017-02-26T08:00:33.221Z,1006.03
2017-02-26T08:01:43.548Z,1006.02
2017-02-26T08:02:53.892Z,1006.05
2017-02-26T08:04:04.721Z,1006
2017-02-26T08:05:15.317Z,1005.97
2017-02-26T08:06:25.648Z,1005.99
2017-02-26T08:07:35.630Z,1005.93
2017-02-26T08:08:45.560Z,1006.03
2017-02-26T08:09:55.163Z,1005.98
2017-02-26T08:11:05.791Z,1005.98
2017-02-26T08:12:15.355Z,1005.98
2017-02-26T08:13:25.306Z,1005.98
2017-02-26T08:14:35.261Z,1005.95
2017-02-26T08:15:45.208Z,1005.95
2017-02-26T08:16:56.186Z,1005.95
2017-02-26T08:18:06.916Z,1006.01
2017-02-26T08:19:17.242Z,1005.98
2017-02-26T08:20:27.990Z,1006.02
2017-02-26T08:21:37.919Z,1006.06
2017-02-26T08:22:48.129Z,1006.01
2017-02-26T08:23:58.487Z,1006.05
2017-02-26T08:25:08.833Z,1005.99
2017-02-26T08:26:19.175Z,1006.03
2017-02-26T08:27:29.517Z,1005.97
2017-02-26T08:28:40.142Z,1006.01
2017-02-26T08:29:50.474Z,1005.98
2017-02-26T08:31:01.226Z,1005.98
2017-02-26T08:32:11.566Z,1006
2017-02-26T08:33:22.541Z,1006
2017-02-26T08:34:33.128Z,1006.02
2017-02-26T08:35:43.470Z,1006.04
2017-02-26T08:36:54.187Z,1006
2017-02-26T08:38:04.517Z,1006.02
2017-02-26T08:39:14.867Z,1005.97
2017-02-26T08:40:25.443Z,1005.98
2017-02-26T08:41:35.369Z,1005.98
2017-02-26T08:42:46.107Z,1005.98
2017-02-26T08:43:56.817Z,1005.93
2017-02-26T08:45:07.208Z,1005.97
2017-02-26T08:46:17.850Z,1006
2017-02-26T08:47:28.171Z,1006
2017-02-26T08:48:38.890Z,1005.98
2017-02-26T08:49:48.071Z,1005.97
2017-02-26T08:50:58.814Z,1006
2017-02-26T08:52:09.003Z,1006
2017-02-26T08:53:19.348Z,1005.97
2017-02-26T08:54:29.696Z,1005.94
2017-02-26T08:55:40.411Z,1005.96
2017-02-26T08:56:51.146Z,1005.93
2017-02-26T08:58:01.752Z,1005.92
2017-02-26T08:59:11.320Z,1005.94
2017-02-26T09:00:22.037Z,1005.95
2017-02-26T09:01:32.372Z,1005.96
2017-02-26T09:02:42.322Z,1005.92
2017-02-26T09:03:51.736Z,1005.91
2017-02-26T09:05:02.078Z,1005.92
2017-02-26T09:06:12.401Z,1005.94
2017-02-26T09:07:22.743Z,1005.93
2017-02-26T09:08:33.477Z,1005.95
2017-02-26T09:09:43.711Z,1005.97
2017-02-26T09:10:54.039Z,1005.94
2017-02-26T09:12:04.368Z,1005.98
2017-02-26T09:13:14.322Z,1005.95
2017-02-26T09:14:24.262Z,1005.93
2017-02-26T09:15:35.250Z,1005.93
2017-02-26T09:16:45.169Z,1005.95
2017-02-26T09:17:55.554Z,1005.92
2017-02-26T09:19:05.945Z,1005.89
2017-02-26T09:20:16.279Z,1005.9
2017-02-26T09:21:26.868Z,1005.88
2017-02-26T09:22:37.600Z,1005.95
2017-02-26T09:23:47.928Z,1005.95
2017-02-26T09:24:58.273Z,1005.94
2017-02-26T09:26:08.263Z,1005.95
2017-02-26T09:27:18.843Z,1005.97
2017-02-26T09:28:28.370Z,1005.88
2017-02-26T09:29:38.321Z,1005.94
2017-02-26T09:30:48.666Z,1005.92
2017-02-26T09:31:59.032Z,1005.93
2017-02-26T09:33:10.020Z,1005.91
2017-02-26T09:34:20.756Z,1005.85
2017-02-26T09:35:30.714Z,1005.87
2017-02-26T09:36:41.477Z,1005.93
2017-02-26T09:37:51.413Z,1005.96
2017-02-26T09:39:02.058Z,1005.96
2017-02-26T09:40:12.005Z,1005.98
2017-02-26T09:41:21.954Z,1005.95
2017-02-26T09:42:32.693Z,1006.01
2017-02-26T09:43:43.047Z,1006
2017-02-26T09:44:53.261Z,1005.95
2017-02-26T09:46:03.630Z,1006
2017-02-26T09:47:14.356Z,1005.99
2017-02-26T09:48:24.744Z,1005.98
2017-02-26T09:49:35.508Z,1006
2017-02-26T09:50:46.128Z,1005.95
2017-02-26T09:51:56.469Z,1005.97
2017-02-26T09:53:06.820Z,1005.93
2017-02-26T09:54:16.789Z,1006
2017-02-26T09:55:27.524Z,1005.96
2017-02-26T09:56:38.570Z,1005.94
2017-02-26T09:57:48.533Z,1005.9
2017-02-26T09:58:58.905Z,1005.87
2017-02-26T10:00:09.265Z,1005.92
2017-02-26T10:01:19.611Z,1005.89
2017-02-26T10:02:30.216Z,1005.92
2017-02-26T10:03:40.581Z,1005.82
2017-02-26T10:04:50.949Z,1005.77
2017-02-26T10:06:01.392Z,1005.8
2017-02-26T10:07:12.165Z,1005.77
2017-02-26T10:08:23.183Z,1005.78
2017-02-26T10:09:33.554Z,1005.77
2017-02-26T10:10:43.918Z,1005.76
2017-02-26T10:11:54.668Z,1005.8
2017-02-26T10:13:05.039Z,1005.79
2017-02-26T10:14:16.065Z,1005.81
2017-02-26T10:15:26.047Z,1005.79
2017-02-26T10:16:36.433Z,1005.76
2017-02-26T10:17:45.620Z,1005.78
2017-02-26T10:18:55.994Z,1005.8
2017-02-26T10:20:05.403Z,1005.78
2017-02-26T10:21:16.167Z,1005.76
2017-02-26T10:22:26.501Z,1005.8
2017-02-26T10:23:36.867Z,1005.82
2017-02-26T10:24:47.613Z,1005.84
2017-02-26T10:25:58.227Z,1005.81
2017-02-26T10:27:08.991Z,1005.82
2017-02-26T10:28:18.917Z,1005.87
2017-02-26T10:29:29.652Z,1005.81
2017-02-26T10:30:39.993Z,1005.85
2017-02-26T10:31:50.983Z,1005.89
2017-02-26T10:33:01.337Z,1005.89
2017-02-26T10:34:10.897Z,1005.82
2017-02-26T10:35:21.258Z,1005.85
2017-02-26T10:36:32.026Z,1005.82
2017-02-26T10:37:42.647Z,1005.87
2017-02-26T10:38:52.610Z,1005.84
2017-02-26T10:40:02.176Z,1005.86
2017-02-26T10:41:12.526Z,1005.85
2017-02-26T10:42:22.461Z,1005.85
2017-02-26T10:43:32.728Z,1005.8
2017-02-26T10:44:42.686Z,1005.81
2017-02-26T10:45:52.620Z,1005.83
2017-02-26T10:47:03.341Z,1005.83
2017-02-26T10:48:13.706Z,1005.77
2017-02-26T10:49:23.899Z,1005.8
2017-02-26T10:50:34.657Z,1005.8
2017-02-26T10:51:45.421Z,1005.85
2017-02-26T10:52:56.180Z,1005.86
2017-02-26T10:54:06.563Z,1005.78
2017-02-26T10:55:17.604Z,1005.75
2017-02-26T10:56:27.962Z,1005.81
2017-02-26T10:57:38.760Z,1005.82
2017-02-26T10:58:49.121Z,1005.77
2017-02-26T10:59:59.875Z,1005.81
2017-02-26T11:01:10.477Z,1005.88
2017-02-26T11:02:21.289Z,1005.88
2017-02-26T11:03:32.043Z,1005.87
2017-02-26T11:04:42.404Z,1005.85
2017-02-26T11:05:53.205Z,1005.85
2017-02-26T11:07:03.421Z,1005.79
2017-02-26T11:08:13.755Z,1005.83
2017-02-26T11:09:24.492Z,1005.79
2017-02-26T11:10:35.245Z,1005.82
2017-02-26T11:11:45.604Z,1005.83
2017-02-26T11:12:56.246Z,1005.84
2017-02-26T11:14:07.004Z,1005.82
2017-02-26T11:15:17.821Z,1005.81
2017-02-26T11:16:27.811Z,1005.79
2017-02-26T11:17:38.166Z,1005.75
2017-02-26T11:18:49.198Z,1005.78
2017-02-26T11:19:59.541Z,1005.77
2017-02-26T11:21:10.311Z,1005.76
2017-02-26T11:22:20.682Z,1005.73
2017-02-26T11:23:30.667Z,1005.74
2017-02-26T11:24:40.868Z,1005.72
2017-02-26T11:25:51.239Z,1005.7
2017-02-26T11:27:02.020Z,1005.69
2017-02-26T11:28:12.014Z,1005.67
2017-02-26T11:29:22.786Z,1005.62
2017-02-26T11:30:33.424Z,1005.67
2017-02-26T11:31:43.773Z,1005.68
2017-02-26T11:32:54.560Z,1005.63
2017-02-26T11:34:04.920Z,1005.57
2017-02-26T11:35:15.285Z,1005.6
2017-02-26T11:36:26.304Z,1005.54
2017-02-26T11:37:37.072Z,1005.55
2017-02-26T11:38:47.855Z,1005.53
2017-02-26T11:39:58.603Z,1005.54
2017-02-26T11:41:09.715Z,1005.51
2017-02-26T11:42:20.330Z,1005.57
2017-02-26T11:43:31.075Z,1005.48
2017-02-26T11:44:41.843Z,1005.48
2017-02-26T11:45:52.611Z,1005.47
2017-02-26T11:47:03.366Z,1005.46
2017-02-26T11:48:13.997Z,1005.4
2017-02-26T11:49:24.740Z,1005.41
2017-02-26T11:50:35.098Z,1005.44
2017-02-26T11:51:45.459Z,1005.41
2017-02-26T11:52:55.412Z,1005.42
2017-02-26T11:54:05.632Z,1005.38
2017-02-26T11:55:15.990Z,1005.39
2017-02-26T11:56:26.783Z,1005.44
2017-02-26T11:57:37.571Z,1005.4
2017-02-26T11:58:48.347Z,1005.41
2017-02-26T11:59:59.361Z,1005.38
2017-02-26T12:01:09.726Z,1005.28
2017-02-26T12:02:19.719Z,1005.27
2017-02-26T12:03:30.496Z,1005.25
2017-02-26T12:04:41.242Z,1005.23
2017-02-26T12:05:51.857Z,1005.26
2017-02-26T12:07:02.228Z,1005.23
2017-02-26T12:08:12.599Z,1005.2
2017-02-26T12:09:22.951Z,1005.24
2017-02-26T12:10:32.919Z,1005.24
2017-02-26T12:11:43.554Z,1005.26
2017-02-26T12:12:53.930Z,1005.31
2017-02-26T12:14:05.429Z,1005.26
2017-02-26T12:15:15.422Z,1005.24
2017-02-26T12:16:25.798Z,1005.17
2017-02-26T12:17:36.842Z,1005.16
2017-02-26T12:18:47.208Z,1005.21
2017-02-26T12:19:57.975Z,1005.22
2017-02-26T12:21:08.732Z,1005.21
2017-02-26T12:22:19.075Z,1005.23
2017-02-26T12:23:29.351Z,1005.2
2017-02-26T12:24:39.317Z,1005.18
2017-02-26T12:25:50.103Z,1005.18
2017-02-26T12:27:00.876Z,1005.16
2017-02-26T12:28:11.211Z,1005.11
2017-02-26T12:29:22.214Z,1005.19
2017-02-26T12:30:32.980Z,1005.14
2017-02-26T12:31:43.744Z,1005.15
2017-02-26T12:32:54.532Z,1005.15
2017-02-26T12:34:04.104Z,1005.24
2017-02-26T12:35:14.724Z,1005.23
2017-02-26T12:36:25.474Z,1005.17
2017-02-26T12:37:36.230Z,1005.21
2017-02-26T12:38:46.992Z,1005.17
2017-02-26T12:39:57.754Z,1005.19
2017-02-26T12:41:08.397Z,1005.18
2017-02-26T12:42:19.167Z,1005.18
2017-02-26T12:43:29.888Z,1005.21
2017-02-26T12:44:40.240Z,1005.17
2017-02-26T12:45:50.628Z,1005.16
2017-02-26T12:47:00.830Z,1005.18
2017-02-26T12:48:11.604Z,1005.18
2017-02-26T12:49:21.580Z,1005.16
2017-02-26T12:50:31.962Z,1005.16
2017-02-26T12:51:42.339Z,1005.14
2017-02-26T12:52:53.350Z,1005.15
2017-02-26T12:54:03.724Z,1005.1
2017-02-26T12:55:14.531Z,1005.11
2017-02-26T12:56:25.344Z,1005.18
2017-02-26T12:57:35.706Z,1005.16
2017-02-26T12:58:46.371Z,1005.12
2017-02-26T12:59:57.121Z,1005.09
2017-02-26T13:01:07.507Z,1005.03
2017-02-26T13:02:18.253Z,1005
2017-02-26T13:03:28.240Z,1004.98
2017-02-26T13:04:38.917Z,1004.89
2017-02-26T13:05:49.674Z,1004.91
2017-02-26T13:07:00.634Z,1004.91
2017-02-26T13:08:11.026Z,1004.93
2017-02-26T13:09:21.378Z,1004.95
2017-02-26T13:10:32.046Z,1004.95
2017-02-26T13:11:42.782Z,1004.89
2017-02-26T13:12:53.547Z,1004.91
2017-02-26T13:14:04.295Z,1004.85
2017-02-26T13:15:15.056Z,1004.81
2017-02-26T13:16:26.117Z,1004.74
2017-02-26T13:17:36.456Z,1004.65
2017-02-26T13:18:46.410Z,1004.66
2017-02-26T13:19:56.762Z,1004.61
2017-02-26T13:21:07.535Z,1004.61
2017-02-26T13:22:18.610Z,1004.58
2017-02-26T13:23:28.998Z,1004.61
2017-02-26T13:24:39.771Z,1004.56
2017-02-26T13:25:50.511Z,1004.61
2017-02-26T13:27:01.265Z,1004.67
2017-02-26T13:28:12.333Z,1004.69
2017-02-26T13:29:22.703Z,1004.69
2017-02-26T13:30:33.109Z,1004.8
2017-02-26T13:31:42.683Z,1004.79
2017-02-26T13:32:53.092Z,1004.75
2017-02-26T13:34:03.695Z,1004.81
2017-02-26T13:35:13.649Z,1004.88
2017-02-26T13:36:24.442Z,1004.86
2017-02-26T13:37:35.200Z,1004.87
2017-02-26T13:38:45.577Z,1004.84
2017-02-26T13:39:55.387Z,1004.89
2017-02-26T13:41:06.125Z,1004.91
2017-02-26T13:42:16.885Z,1004.87
2017-02-26T13:43:27.632Z,1004.97
2017-02-26T13:44:38.395Z,1004.9
2017-02-26T13:45:49.445Z,1004.91
2017-02-26T13:47:00.265Z,1004.93
2017-02-26T13:48:10.631Z,1004.92
2017-02-26T13:49:21.372Z,1004.95
2017-02-26T13:50:32.132Z,1004.98
2017-02-26T13:51:43.146Z,1004.96
2017-02-26T13:52:53.513Z,1004.96
2017-02-26T13:54:03.901Z,1005
2017-02-26T13:55:14.260Z,1004.94
2017-02-26T13:56:25.017Z,1004.97
2017-02-26T13:57:36.074Z,1004.89
2017-02-26T13:58:46.866Z,1004.9
2017-02-26T13:59:57.200Z,1004.92
2017-02-26T14:01:07.984Z,1004.84
2017-02-26T14:02:18.732Z,1004.84
2017-02-26T14:03:29.982Z,1004.81
2017-02-26T14:04:40.346Z,1004.85
2017-02-26T14:05:51.111Z,1004.89
2017-02-26T14:07:01.473Z,1004.89
2017-02-26T14:08:12.284Z,1004.92
2017-02-26T14:09:22.886Z,1004.93
2017-02-26T14:10:33.248Z,1004.96
2017-02-26T14:11:44.007Z,1004.93
2017-02-26T14:12:54.385Z,1004.97
2017-02-26T14:14:05.157Z,1004.96
2017-02-26T14:15:16.171Z,1004.97